Time;durP1;ratioP1;P1;durP2;ratioP2;P2;SDS_P1;SDS_P2;PMS_P1;PMS_P2;Temp;Humidity;BMP_temperature;BMP_pressure;BME280_temperature;BME280_humidity;BME280_pressure;Samples;Min_cycle;Max_cycle;Signal;HPM_P1;HPM_P2
2021/08/01 00:00:30;;;;;;;;;;;17.60;99.90;;;;;;5078405;28;19908;-88
2021/08/01 00:02:56;;;;;;;;;;;17.50;99.90;;;;;;5078234;28;19908;-88
2021/08/01 00:05:22;;;;;;;;;;;17.60;99.90;;;;;;5078227;28;20403;-88
2021/08/01 00:07:47;;;;;;;;;;;17.60;99.90;;;;;;5078011;28;19955;-88
2021/08/01 00:10:13;;;;;;;;;;;17.60;99.90;;;;;;5078496;28;20315;-88
2021/08/01 00:12:40;;;;;;;;;;;17.60;99.90;;;;;;5096134;28;19962;-88
2021/08/01 00:15:06;;;;;;;;;;;17.60;99.90;;;;;;5077968;28;19908;-88
2021/08/01 00:17:32;;;;;;;;;;;17.60;99.90;;;;;;5077911;28;19908;-88
2021/08/01 00:19:57;;;;;;;;;;;17.60;99.90;;;;;;5078671;28;19927;-88
2021/08/01 00:22:24;;;;;;;;;;;17.60;99.90;;;;;;5097031;28;19908;-88
2021/08/01 00:24:50;;;;;;;;;;;17.60;99.90;;;;;;5098136;28;20005;-88
2021/08/01 00:27:15;;;;;;;;;;;17.60;99.90;;;;;;5079681;28;19963;-88
2021/08/01 00:29:41;;;;;;;;;;;17.60;99.90;;;;;;5077857;28;19908;-88
2021/08/01 00:32:07;;;;;;;;;;;17.60;99.90;;;;;;5077781;28;20356;-88
2021/08/01 00:34:34;;;;;;;;;;;17.60;99.90;;;;;;5077662;28;19908;-88
2021/08/01 00:36:59;;;;;;;;;;;17.60;99.90;;;;;;5077548;28;19919;-88
2021/08/01 00:39:25;;;;;;;;;;;17.60;99.90;;;;;;5077528;28;19908;-88
2021/08/01 00:41:50;;;;;;;;;;;17.50;99.90;;;;;;5077486;28;20386;-88
2021/08/01 00:44:16;;;;;;;;;;;17.50;99.90;;;;;;5095657;28;19944;-88
2021/08/01 00:46:44;;;;;;;;;;;17.50;99.90;;;;;;5077419;28;19958;-88
2021/08/01 00:49:10;;;;;;;;;;;17.50;99.90;;;;;;5077327;28;19999;-88
2021/08/01 00:51:36;;;;;;;;;;;17.50;99.90;;;;;;5095711;28;19946;-88
2021/08/01 00:54:02;;;;;;;;;;;17.50;99.90;;;;;;5077364;28;20272;-88
2021/08/01 00:56:27;;;;;;;;;;;17.60;99.90;;;;;;5095592;28;20011;-88
2021/08/01 00:58:53;;;;;;;;;;;17.60;99.90;;;;;;5095243;28;20262;-88
2021/08/01 01:01:22;;;;;;;;;;;17.60;99.90;;;;;;5077221;28;19908;-88
2021/08/01 01:04:07;;;;;;;;;;;17.50;99.90;;;;;;5095381;28;19908;-88
2021/08/01 01:06:33;;;;;;;;;;;17.60;99.90;;;;;;5093874;28;20403;-88
2021/08/01 01:08:58;;;;;;;;;;;17.50;99.90;;;;;;5076878;28;19908;-88
2021/08/01 01:11:27;;;;;;;;;;;17.50;99.90;;;;;;5076331;28;20314;-88
2021/08/01 01:13:54;;;;;;;;;;;17.50;99.90;;;;;;5095016;28;19961;-88
2021/08/01 01:16:20;;;;;;;;;;;17.50;99.90;;;;;;5076821;28;19919;-88
2021/08/01 01:18:50;;;;;;;;;;;17.50;99.90;;;;;;5094704;28;19917;-88
2021/08/01 01:21:16;;;;;;;;;;;17.50;99.90;;;;;;5076861;28;19915;-88
2021/08/01 01:23:46;;;;;;;;;;;17.50;99.90;;;;;;5076729;28;20003;-88
2021/08/01 01:26:41;;;;;;;;;;;17.50;99.90;;;;;;5076608;28;19915;-88
2021/08/01 01:29:06;;;;;;;;;;;17.50;99.90;;;;;;5074467;28;19908;-88
2021/08/01 01:31:47;;;;;;;;;;;17.50;99.90;;;;;;5076584;28;19914;-88
2021/08/01 01:34:31;;;;;;;;;;;17.50;99.90;;;;;;5076485;28;19915;-88
2021/08/01 01:36:59;;;;;;;;;;;17.40;99.90;;;;;;5076364;28;19963;-88
2021/08/01 01:39:25;;;;;;;;;;;17.50;99.90;;;;;;5076241;28;19915;-88
2021/08/01 01:41:51;;;;;;;;;;;17.50;99.90;;;;;;5076287;28;19908;-88
2021/08/01 01:44:17;;;;;;;;;;;17.40;99.90;;;;;;5076423;28;19915;-88
2021/08/01 01:46:44;;;;;;;;;;;17.40;99.90;;;;;;5076297;28;20003;-88
2021/08/01 01:49:10;;;;;;;;;;;17.40;99.90;;;;;;5075846;28;19916;-88
2021/08/01 01:51:36;;;;;;;;;;;17.40;99.90;;;;;;5076124;28;19909;-88
2021/08/01 01:54:02;;;;;;;;;;;17.40;99.90;;;;;;5076226;28;20311;-88
2021/08/01 01:56:33;;;;;;;;;;;17.30;99.90;;;;;;5076304;28;19913;-88
2021/08/01 01:58:59;;;;;;;;;;;17.30;99.90;;;;;;5076168;28;20009;-88
2021/08/01 02:01:25;;;;;;;;;;;17.30;99.90;;;;;;5075999;28;19912;-88
2021/08/01 02:03:51;;;;;;;;;;;17.30;99.90;;;;;;5076037;28;19908;-88
2021/08/01 02:06:16;;;;;;;;;;;17.30;99.90;;;;;;5075943;28;19912;-87
2021/08/01 02:09:02;;;;;;;;;;;17.30;99.90;;;;;;5076221;28;20376;-88
2021/08/01 02:11:31;;;;;;;;;;;17.30;99.90;;;;;;5075167;28;19955;-88
2021/08/01 02:14:01;;;;;;;;;;;17.30;99.90;;;;;;5075648;28;19912;-88
2021/08/01 02:16:29;;;;;;;;;;;17.20;99.90;;;;;;5075759;28;19915;-88
2021/08/01 02:18:56;;;;;;;;;;;17.20;99.90;;;;;;5075439;28;19927;-88
2021/08/01 02:21:22;;;;;;;;;;;17.20;99.90;;;;;;5075336;28;19908;-88
2021/08/01 02:23:48;;;;;;;;;;;17.20;99.90;;;;;;5075004;28;19909;-88
2021/08/01 02:26:16;;;;;;;;;;;17.20;99.90;;;;;;5075420;28;19937;-88
2021/08/01 02:28:42;;;;;;;;;;;17.20;99.90;;;;;;5093632;28;19908;-88
2021/08/01 02:31:08;;;;;;;;;;;17.20;99.90;;;;;;5075332;28;19908;-88
2021/08/01 02:33:34;;;;;;;;;;;17.20;99.90;;;;;;5075364;28;20011;-88
2021/08/01 02:36:05;;;;;;;;;;;17.20;99.90;;;;;;5075361;28;19912;-88
2021/08/01 02:38:31;;;;;;;;;;;17.20;99.90;;;;;;5075356;28;20391;-87
2021/08/01 02:41:01;;;;;;;;;;;17.20;99.90;;;;;;5075537;28;19921;-88
2021/08/01 02:43:27;;;;;;;;;;;17.20;99.90;;;;;;5075606;28;19981;-88
2021/08/01 02:45:54;;;;;;;;;;;17.30;99.90;;;;;;5075047;28;19928;-88
2021/08/01 02:48:21;;;;;;;;;;;17.30;99.90;;;;;;5075128;28;19977;-89
2021/08/01 02:50:48;;;;;;;;;;;17.30;99.90;;;;;;5093091;28;20486;-88
2021/08/01 02:53:16;;;;;;;;;;;17.30;99.90;;;;;;5074469;28;19915;-88
2021/08/01 02:55:43;;;;;;;;;;;17.30;99.90;;;;;;5073588;28;20285;-88
2021/08/01 02:58:08;;;;;;;;;;;17.30;99.90;;;;;;5074997;28;20288;-88
2021/08/01 03:00:35;;;;;;;;;;;17.30;99.90;;;;;;5075171;28;19908;-88
2021/08/01 03:03:00;;;;;;;;;;;17.40;99.90;;;;;;5093200;28;19909;-88
2021/08/01 03:05:26;;;;;;;;;;;17.40;99.90;;;;;;5075113;28;20506;-88
2021/08/01 03:07:52;;;;;;;;;;;17.40;99.90;;;;;;5092798;28;19908;-88
2021/08/01 03:10:18;;;;;;;;;;;17.40;99.90;;;;;;5074792;28;19961;-88
2021/08/01 03:12:44;;;;;;;;;;;17.50;99.90;;;;;;5074753;28;19908;-88
2021/08/01 03:15:10;;;;;;;;;;;17.50;99.90;;;;;;5074781;28;20023;-88
2021/08/01 03:17:36;;;;;;;;;;;17.50;99.90;;;;;;5074770;28;20412;-88
2021/08/01 03:20:01;;;;;;;;;;;17.60;99.90;;;;;;5074539;28;19916;-88
2021/08/01 03:22:27;;;;;;;;;;;17.50;99.90;;;;;;5074747;28;20002;-88
2021/08/01 03:24:52;;;;;;;;;;;17.60;99.90;;;;;;5092734;28;19954;-88
2021/08/01 03:27:18;;;;;;;;;;;17.60;99.90;;;;;;5074826;28;19915;-88
2021/08/01 03:29:43;;;;;;;;;;;17.60;99.90;;;;;;5074651;28;19908;-88
2021/08/01 03:32:09;;;;;;;;;;;17.60;99.90;;;;;;5074791;28;19947;-88
2021/08/01 03:34:34;;;;;;;;;;;17.60;99.90;;;;;;5095308;28;20406;-88
2021/08/01 03:37:00;;;;;;;;;;;17.60;99.90;;;;;;5078691;28;19919;-88
2021/08/01 03:39:25;;;;;;;;;;;17.60;99.90;;;;;;5078609;28;19912;-88
2021/08/01 03:41:51;;;;;;;;;;;17.60;99.90;;;;;;5078752;28;20402;-88
2021/08/01 03:44:16;;;;;;;;;;;17.60;99.90;;;;;;5096803;28;20439;-88
2021/08/01 03:46:42;;;;;;;;;;;17.60;99.90;;;;;;5096833;28;19909;-88
2021/08/01 03:49:07;;;;;;;;;;;17.60;99.90;;;;;;5078224;28;20304;-88
2021/08/01 03:51:33;;;;;;;;;;;17.60;99.90;;;;;;5078676;28;19914;-88
2021/08/01 03:53:58;;;;;;;;;;;17.60;99.90;;;;;;5078465;28;20300;-88
2021/08/01 03:56:24;;;;;;;;;;;17.60;99.90;;;;;;5078446;28;19912;-88
2021/08/01 03:58:49;;;;;;;;;;;17.60;99.90;;;;;;5078451;28;19908;-88
2021/08/01 04:01:16;;;;;;;;;;;17.50;99.90;;;;;;5078297;28;20357;-88
2021/08/01 04:03:42;;;;;;;;;;;17.60;99.90;;;;;;5078230;28;19908;-88
2021/08/01 04:06:07;;;;;;;;;;;17.60;99.90;;;;;;5078175;28;20289;-87
2021/08/01 04:08:34;;;;;;;;;;;17.50;99.90;;;;;;5077975;28;19916;-88
2021/08/01 04:11:05;;;;;;;;;;;17.50;99.90;;;;;;5078229;28;19951;-88
2021/08/01 04:13:31;;;;;;;;;;;17.50;99.90;;;;;;5078253;28;19938;-88
2021/08/01 04:15:57;;;;;;;;;;;17.50;99.90;;;;;;5077881;28;20026;-88
2021/08/01 04:18:22;;;;;;;;;;;17.50;99.90;;;;;;5077778;28;19919;-88
2021/08/01 04:20:47;;;;;;;;;;;17.50;99.90;;;;;;5077619;28;19908;-88
2021/08/01 04:23:13;;;;;;;;;;;17.50;99.90;;;;;;5077924;28;19908;-88
2021/08/01 04:25:38;;;;;;;;;;;17.50;99.90;;;;;;5077942;28;20277;-88
2021/08/01 04:28:04;;;;;;;;;;;17.50;99.90;;;;;;5077818;28;19912;-88
2021/08/01 04:30:29;;;;;;;;;;;17.50;99.90;;;;;;5095713;28;19953;-88
2021/08/01 04:32:55;;;;;;;;;;;17.50;99.90;;;;;;5078941;28;20432;-88
2021/08/01 04:35:20;;;;;;;;;;;17.50;99.90;;;;;;5077518;28;20284;-88
2021/08/01 04:37:46;;;;;;;;;;;17.40;99.90;;;;;;5077601;28;19919;-88
2021/08/01 04:40:12;;;;;;;;;;;17.40;99.90;;;;;;5077258;28;19908;-88
2021/08/01 04:42:37;;;;;;;;;;;17.40;99.90;;;;;;5077519;28;20002;-88
2021/08/01 04:45:03;;;;;;;;;;;17.40;99.90;;;;;;5077820;28;19908;-88
2021/08/01 04:47:29;;;;;;;;;;;17.30;99.90;;;;;;5077457;28;19947;-88
2021/08/01 04:49:54;;;;;;;;;;;17.40;99.90;;;;;;5077164;28;20292;-88
2021/08/01 04:52:20;;;;;;;;;;;17.30;99.90;;;;;;5095382;28;19908;-88
2021/08/01 04:54:45;;;;;;;;;;;17.30;99.90;;;;;;5095405;28;19919;-88
2021/08/01 04:57:11;;;;;;;;;;;17.30;99.90;;;;;;5077324;28;19912;-87
2021/08/01 04:59:37;;;;;;;;;;;17.30;99.90;;;;;;5094756;28;19912;-89
2021/08/01 05:02:02;;;;;;;;;;;17.30;99.90;;;;;;5077146;28;20050;-88
2021/08/01 05:04:28;;;;;;;;;;;17.30;99.90;;;;;;5077167;28;19908;-87
2021/08/01 05:06:54;;;;;;;;;;;17.30;99.90;;;;;;5095241;28;20117;-88
2021/08/01 05:09:19;;;;;;;;;;;17.30;99.90;;;;;;5077576;28;19989;-88
2021/08/01 05:11:45;;;;;;;;;;;17.30;99.90;;;;;;5077100;28;19908;-88
2021/08/01 05:14:10;;;;;;;;;;;17.30;99.90;;;;;;5076935;28;19908;-87
2021/08/01 05:16:36;;;;;;;;;;;17.30;99.90;;;;;;5076961;28;19912;-88
2021/08/01 05:19:01;;;;;;;;;;;17.30;99.90;;;;;;5077405;28;19942;-88
2021/08/01 05:21:27;;;;;;;;;;;17.30;99.90;;;;;;5077275;28;20284;-88
2021/08/01 05:23:52;;;;;;;;;;;17.20;99.90;;;;;;5077410;28;19908;-88
2021/08/01 05:26:18;;;;;;;;;;;17.20;99.90;;;;;;5095870;28;19908;-88
2021/08/01 05:28:43;;;;;;;;;;;17.20;99.90;;;;;;5078153;28;19916;-88
2021/08/01 05:31:09;;;;;;;;;;;17.20;99.90;;;;;;5076511;28;19999;-88
2021/08/01 05:33:34;;;;;;;;;;;17.20;99.90;;;;;;5076616;28;19933;-88
2021/08/01 05:36:07;;;;;;;;;;;17.20;99.90;;;;;;5094551;28;19912;-88
2021/08/01 05:38:32;;;;;;;;;;;17.20;99.90;;;;;;5076267;28;19909;-88
2021/08/01 05:40:58;;;;;;;;;;;17.30;99.90;;;;;;5076784;28;20048;-88
2021/08/01 05:43:23;;;;;;;;;;;17.30;99.90;;;;;;5094575;28;19908;-88
2021/08/01 05:45:49;;;;;;;;;;;17.30;99.90;;;;;;5076395;28;20293;-88
2021/08/01 05:48:14;;;;;;;;;;;17.30;99.90;;;;;;5094365;28;20368;-88
2021/08/01 05:50:40;;;;;;;;;;;17.30;99.90;;;;;;5094237;28;19908;-87
2021/08/01 05:53:05;;;;;;;;;;;17.40;99.90;;;;;;5094193;28;20007;-88
2021/08/01 05:55:31;;;;;;;;;;;17.40;99.90;;;;;;5076338;28;19923;-88
2021/08/01 05:57:56;;;;;;;;;;;17.40;99.90;;;;;;5094099;28;20006;-88
2021/08/01 06:00:22;;;;;;;;;;;17.50;99.90;;;;;;5094122;28;19915;-88
2021/08/01 06:02:47;;;;;;;;;;;17.50;99.90;;;;;;5076078;28;19938;-88
2021/08/01 06:05:13;;;;;;;;;;;17.50;99.90;;;;;;5075842;28;19908;-88
2021/08/01 06:07:38;;;;;;;;;;;17.60;99.90;;;;;;5075781;28;19931;-88
2021/08/01 06:10:04;;;;;;;;;;;17.60;99.90;;;;;;5075615;28;19943;-88
2021/08/01 06:12:30;;;;;;;;;;;17.60;99.90;;;;;;5075914;28;19908;-88
2021/08/01 06:14:55;;;;;;;;;;;17.70;99.90;;;;;;5075888;28;19908;-88
2021/08/01 06:17:21;;;;;;;;;;;17.60;99.90;;;;;;5075725;28;19920;-88
2021/08/01 06:19:47;;;;;;;;;;;17.70;99.90;;;;;;5076473;28;20365;-88
2021/08/01 06:22:14;;;;;;;;;;;17.70;99.90;;;;;;5097504;28;19909;-87
2021/08/01 06:24:39;;;;;;;;;;;17.70;99.90;;;;;;5080676;28;19908;-88
2021/08/01 06:27:05;;;;;;;;;;;17.80;99.90;;;;;;5090470;28;20304;-88
2021/08/01 06:29:30;;;;;;;;;;;17.80;99.90;;;;;;5109004;28;19908;-88
2021/08/01 06:31:56;;;;;;;;;;;17.80;99.90;;;;;;5089281;28;19912;-88
2021/08/01 06:34:23;;;;;;;;;;;17.80;99.90;;;;;;5075811;28;19908;-88
2021/08/01 06:36:49;;;;;;;;;;;17.70;99.90;;;;;;5075337;28;19912;-88
2021/08/01 06:39:14;;;;;;;;;;;17.70;99.90;;;;;;5075363;28;19915;-88
2021/08/01 06:41:40;;;;;;;;;;;17.70;99.90;;;;;;5075333;28;20028;-88
2021/08/01 06:44:05;;;;;;;;;;;17.60;99.90;;;;;;5093493;28;20357;-88
2021/08/01 06:46:31;;;;;;;;;;;17.60;99.90;;;;;;5093476;28;19908;-88
2021/08/01 06:48:56;;;;;;;;;;;17.60;99.90;;;;;;5074762;28;19915;-88
2021/08/01 06:51:22;;;;;;;;;;;17.60;99.90;;;;;;5074899;28;19908;-89
2021/08/01 06:53:47;;;;;;;;;;;17.60;99.90;;;;;;5075121;28;20307;-90
2021/08/01 06:56:13;;;;;;;;;;;17.70;99.90;;;;;;5074969;28;19914;-88
2021/08/01 06:58:38;;;;;;;;;;;17.70;99.90;;;;;;5074838;28;19915;-88
2021/08/01 07:01:04;;;;;;;;;;;17.80;99.90;;;;;;5092991;28;19948;-88
2021/08/01 07:03:29;;;;;;;;;;;17.80;99.90;;;;;;5074791;28;19915;-88
2021/08/01 07:05:56;;;;;;;;;;;17.90;99.90;;;;;;5092738;28;19908;-88
2021/08/01 07:08:21;;;;;;;;;;;17.90;99.90;;;;;;5074183;28;19963;-88
2021/08/01 07:10:47;;;;;;;;;;;17.90;99.90;;;;;;5074680;28;19955;-88
2021/08/01 07:13:12;;;;;;;;;;;17.90;99.90;;;;;;5093049;28;19909;-88
2021/08/01 07:15:38;;;;;;;;;;;17.90;99.90;;;;;;5074982;28;19908;-88
2021/08/01 07:18:04;;;;;;;;;;;17.90;99.90;;;;;;5074596;28;19950;-88
2021/08/01 07:20:30;;;;;;;;;;;18.00;99.90;;;;;;5074883;28;19908;-88
2021/08/01 07:22:57;;;;;;;;;;;18.00;99.90;;;;;;5075193;28;19908;-88
2021/08/01 07:25:25;;;;;;;;;;;18.00;99.90;;;;;;5075003;28;19995;-88
2021/08/01 07:27:51;;;;;;;;;;;18.10;99.90;;;;;;5093203;28;19908;-88
2021/08/01 07:30:17;;;;;;;;;;;18.20;99.90;;;;;;5074594;28;19912;-88
2021/08/01 07:32:43;;;;;;;;;;;18.20;99.90;;;;;;5074671;28;20354;-88
2021/08/01 07:35:08;;;;;;;;;;;18.20;99.90;;;;;;5074867;28;19934;-88
2021/08/01 07:37:34;;;;;;;;;;;18.20;99.90;;;;;;5074702;28;19912;-88
2021/08/01 07:40:00;;;;;;;;;;;18.20;99.90;;;;;;5074552;28;19961;-88
2021/08/01 07:42:26;;;;;;;;;;;18.20;99.90;;;;;;5074583;28;19958;-88
2021/08/01 07:44:54;;;;;;;;;;;18.30;99.90;;;;;;5074581;28;19912;-88
2021/08/01 07:47:21;;;;;;;;;;;18.30;99.90;;;;;;5074555;28;20372;-88
2021/08/01 07:49:48;;;;;;;;;;;18.30;99.90;;;;;;5073959;28;19923;-89
2021/08/01 07:52:15;;;;;;;;;;;18.30;99.90;;;;;;5092521;28;19908;-88
2021/08/01 07:54:40;;;;;;;;;;;18.40;99.90;;;;;;5092431;28;20297;-88
2021/08/01 07:57:06;;;;;;;;;;;18.40;99.90;;;;;;5092508;28;19912;-88
2021/08/01 07:59:32;;;;;;;;;;;18.40;99.30;;;;;;5074142;28;20386;-88
2021/08/01 08:01:57;;;;;;;;;;;18.40;98.80;;;;;;5074329;28;19931;-88
2021/08/01 08:04:23;;;;;;;;;;;18.50;98.40;;;;;;5092478;28;20004;-88
2021/08/01 08:06:48;;;;;;;;;;;18.50;98.10;;;;;;5092304;28;19909;-88
2021/08/01 08:09:14;;;;;;;;;;;18.60;98.30;;;;;;5074109;28;19987;-87
2021/08/01 08:11:39;;;;;;;;;;;18.60;98.30;;;;;;5074304;28;19913;-88
2021/08/01 08:14:05;;;;;;;;;;;18.60;98.20;;;;;;5074357;28;19912;-88
2021/08/01 08:16:32;;;;;;;;;;;18.70;98.40;;;;;;5074325;28;19912;-88
2021/08/01 08:18:58;;;;;;;;;;;18.70;98.40;;;;;;5074066;28;19920;-89
2021/08/01 08:21:26;;;;;;;;;;;18.60;98.40;;;;;;5095968;28;19931;-88
2021/08/01 08:23:51;;;;;;;;;;;18.60;98.10;;;;;;5078744;28;19908;-90
2021/08/01 08:26:17;;;;;;;;;;;18.50;98.20;;;;;;5077766;28;19912;-88
2021/08/01 08:28:42;;;;;;;;;;;18.60;98.00;;;;;;5077680;28;19908;-88
2021/08/01 08:31:08;;;;;;;;;;;18.50;98.00;;;;;;5077322;28;19909;-88
2021/08/01 08:33:33;;;;;;;;;;;18.50;97.60;;;;;;5077773;28;19977;-88
2021/08/01 08:35:59;;;;;;;;;;;18.60;97.80;;;;;;5095823;28;19912;-88
2021/08/01 08:38:24;;;;;;;;;;;18.60;97.40;;;;;;5077489;28;19916;-88
2021/08/01 08:40:50;;;;;;;;;;;18.60;97.50;;;;;;5095817;28;19908;-88
2021/08/01 08:43:16;;;;;;;;;;;18.60;97.10;;;;;;5095645;28;19916;-88
2021/08/01 08:45:44;;;;;;;;;;;18.50;97.30;;;;;;5077573;28;19908;-88
2021/08/01 08:48:11;;;;;;;;;;;18.60;97.10;;;;;;5077387;28;19995;-88
2021/08/01 08:50:37;;;;;;;;;;;18.60;97.20;;;;;;5077445;28;19967;-88
2021/08/01 08:53:03;;;;;;;;;;;18.60;96.90;;;;;;5077713;28;19995;-88
2021/08/01 08:55:32;;;;;;;;;;;18.60;97.30;;;;;;5077261;28;19908;-88
2021/08/01 08:58:02;;;;;;;;;;;18.60;97.10;;;;;;5077161;28;19990;-88
2021/08/01 09:00:28;;;;;;;;;;;18.60;97.20;;;;;;5077183;28;19957;-88
2021/08/01 09:02:54;;;;;;;;;;;18.60;97.30;;;;;;5077310;28;20322;-88
2021/08/01 09:05:19;;;;;;;;;;;18.70;97.40;;;;;;5077176;28;19912;-88
2021/08/01 09:07:45;;;;;;;;;;;18.70;97.30;;;;;;5077300;28;19915;-88
2021/08/01 09:10:11;;;;;;;;;;;18.70;97.40;;;;;;5076976;28;19908;-88
2021/08/01 09:12:44;;;;;;;;;;;18.60;97.10;;;;;;5076853;28;19920;-88
2021/08/01 09:15:16;;;;;;;;;;;18.60;97.30;;;;;;5076984;28;19915;-88
2021/08/01 09:17:41;;;;;;;;;;;18.60;96.70;;;;;;5076763;28;20380;-87
2021/08/01 09:20:11;;;;;;;;;;;18.50;96.40;;;;;;5076247;28;19935;-89
2021/08/01 09:22:37;;;;;;;;;;;18.50;96.60;;;;;;5076825;28;19912;-87
2021/08/01 09:25:14;;;;;;;;;;;18.50;96.30;;;;;;5076766;28;19915;-87
2021/08/01 09:27:40;;;;;;;;;;;18.50;96.40;;;;;;5094932;28;19908;-88
2021/08/01 09:30:06;;;;;;;;;;;18.60;96.60;;;;;;5094378;28;20010;-87
2021/08/01 09:32:44;;;;;;;;;;;18.70;96.50;;;;;;5076208;28;19962;-88
2021/08/01 09:35:15;;;;;;;;;;;18.70;96.30;;;;;;5076636;28;19908;-87
2021/08/01 09:37:40;;;;;;;;;;;18.80;96.20;;;;;;5094553;28;19919;-87
2021/08/01 09:40:08;;;;;;;;;;;18.80;95.80;;;;;;5076320;28;20316;-88
2021/08/01 09:42:40;;;;;;;;;;;18.80;95.70;;;;;;5076520;28;19914;-88
2021/08/01 09:45:22;;;;;;;;;;;18.80;96.10;;;;;;5094435;28;19912;-87
2021/08/01 09:47:48;;;;;;;;;;;18.80;95.70;;;;;;5076193;28;20016;-88
2021/08/01 09:50:15;;;;;;;;;;;18.80;95.90;;;;;;5076008;28;20302;-87
2021/08/01 09:52:41;;;;;;;;;;;18.90;95.60;;;;;;5094362;28;19908;-88
2021/08/01 09:55:17;;;;;;;;;;;18.90;95.30;;;;;;5076265;28;20406;-88
2021/08/01 09:57:48;;;;;;;;;;;18.90;95.50;;;;;;5094098;28;19912;-87
2021/08/01 10:00:14;;;;;;;;;;;18.90;95.20;;;;;;5075846;28;19908;-87
2021/08/01 10:02:40;;;;;;;;;;;18.90;95.30;;;;;;5075984;28;20029;-88
2021/08/01 10:05:18;;;;;;;;;;;19.00;94.90;;;;;;5076005;28;20375;-88
2021/08/01 10:07:44;;;;;;;;;;;19.00;95.10;;;;;;5093988;28;19994;-88
2021/08/01 10:10:16;;;;;;;;;;;19.00;95.40;;;;;;5075658;28;20414;-88
2021/08/01 10:12:46;;;;;;;;;;;19.10;95.80;;;;;;5094000;28;19916;-88
2021/08/01 10:15:11;;;;;;;;;;;19.00;95.90;;;;;;5075712;28;19919;-87
2021/08/01 10:17:38;;;;;;;;;;;19.00;95.60;;;;;;5075843;28;19916;-87
2021/08/01 10:20:05;;;;;;;;;;;19.10;95.90;;;;;;5075461;28;19962;-87
2021/08/01 10:22:30;;;;;;;;;;;19.10;95.70;;;;;;5093801;28;20003;-88
2021/08/01 10:25:00;;;;;;;;;;;19.10;95.60;;;;;;5075589;28;19955;-88
2021/08/01 10:27:27;;;;;;;;;;;19.20;95.70;;;;;;5076973;28;20395;-88
2021/08/01 10:29:56;;;;;;;;;;;19.20;95.00;;;;;;5077815;28;19929;-88
2021/08/01 10:32:24;;;;;;;;;;;19.20;95.30;;;;;;5077397;28;19908;-88
2021/08/01 10:34:56;;;;;;;;;;;19.20;95.60;;;;;;5077380;28;19961;-88
2021/08/01 10:37:27;;;;;;;;;;;19.20;95.70;;;;;;5075334;28;19912;-87
2021/08/01 10:39:53;;;;;;;;;;;19.20;95.50;;;;;;5075648;28;20285;-88
2021/08/01 10:42:20;;;;;;;;;;;19.20;95.40;;;;;;5075467;28;19908;-88
2021/08/01 10:44:47;;;;;;;;;;;19.20;95.00;;;;;;5074796;28;19957;-88
2021/08/01 10:47:13;;;;;;;;;;;19.30;95.10;;;;;;5075476;28;19930;-87
2021/08/01 10:49:39;;;;;;;;;;;19.30;95.20;;;;;;5075215;28;20448;-88
2021/08/01 10:52:12;;;;;;;;;;;19.30;95.10;;;;;;5075214;28;19908;-88
2021/08/01 10:54:49;;;;;;;;;;;19.40;94.60;;;;;;5093306;28;19912;-88
2021/08/01 10:57:16;;;;;;;;;;;19.40;94.60;;;;;;5075209;28;20028;-87
2021/08/01 10:59:44;;;;;;;;;;;19.50;94.70;;;;;;5092969;28;20007;-88
2021/08/01 11:02:20;;;;;;;;;;;19.50;94.70;;;;;;5075078;28;19999;-87
2021/08/01 11:04:47;;;;;;;;;;;19.60;94.60;;;;;;5075046;28;19962;-88
2021/08/01 11:07:27;;;;;;;;;;;19.60;94.80;;;;;;5093253;28;19958;-88
2021/08/01 11:10:08;;;;;;;;;;;19.60;94.50;;;;;;5093045;28;20026;-87
2021/08/01 11:12:37;;;;;;;;;;;19.60;94.50;;;;;;5076474;28;19914;-88
2021/08/01 11:15:06;;;;;;;;;;;19.50;94.50;;;;;;5075021;28;19915;-88
2021/08/01 11:17:48;;;;;;;;;;;19.50;94.70;;;;;;5074900;28;19958;-88
2021/08/01 11:20:23;;;;;;;;;;;19.50;94.30;;;;;;5075148;28;20062;-88
2021/08/01 11:22:49;;;;;;;;;;;19.40;93.90;;;;;;5074549;28;19953;-88
2021/08/01 11:25:21;;;;;;;;;;;19.40;94.50;;;;;;5074529;28;19909;-88
2021/08/01 11:28:05;;;;;;;;;;;19.30;94.90;;;;;;5075201;28;20357;-88
2021/08/01 11:58:32;;;;;;;;;;;19.70;95.00;;;;;;5014294;28;20023;-88
2021/08/01 12:07:44;;;;;;;;;;;19.70;95.10;;;;;;4955766;29;19953;-88
2021/08/01 12:16:35;;;;;;;;;;;20.00;94.00;;;;;;4936277;29;20103;-88
2021/08/01 12:22:14;;;;;;;;;;;20.10;93.10;;;;;;5013554;28;20461;-88
2021/08/01 12:24:41;;;;;;;;;;;20.10;92.90;;;;;;5015466;28;19908;-88
2021/08/01 12:27:16;;;;;;;;;;;20.10;92.90;;;;;;5077627;28;19908;-88
2021/08/01 12:29:41;;;;;;;;;;;20.00;93.10;;;;;;5095205;28;19908;-88
2021/08/01 12:32:23;;;;;;;;;;;20.00;93.40;;;;;;5077560;28;20356;-88
2021/08/01 12:34:50;;;;;;;;;;;20.10;93.70;;;;;;5077539;28;19915;-88
2021/08/01 12:37:15;;;;;;;;;;;20.10;93.50;;;;;;5077161;28;20369;-88
2021/08/01 12:39:48;;;;;;;;;;;20.20;93.60;;;;;;5094968;28;20029;-88
2021/08/01 12:42:14;;;;;;;;;;;20.30;93.00;;;;;;5077389;28;19919;-88
2021/08/01 12:44:49;;;;;;;;;;;20.30;92.80;;;;;;5077351;28;19908;-87
2021/08/01 12:47:15;;;;;;;;;;;20.40;93.20;;;;;;5077407;28;20010;-88
2021/08/01 12:49:40;;;;;;;;;;;20.50;93.10;;;;;;5076500;28;19951;-87
2021/08/01 12:52:06;;;;;;;;;;;20.50;93.20;;;;;;5077125;28;19908;-88
2021/08/01 12:54:32;;;;;;;;;;;20.60;92.80;;;;;;5077356;28;20288;-88
2021/08/01 12:57:16;;;;;;;;;;;20.60;92.70;;;;;;5076980;28;20356;-88
2021/08/01 12:59:41;;;;;;;;;;;20.60;93.10;;;;;;5076661;28;19908;-88
2021/08/01 13:02:07;;;;;;;;;;;20.50;92.50;;;;;;5076866;28;19916;-88
2021/08/01 13:04:42;;;;;;;;;;;20.50;92.80;;;;;;5095280;28;19908;-88
2021/08/01 13:07:08;;;;;;;;;;;20.50;93.30;;;;;;5094163;28;19909;-88
2021/08/01 13:09:34;;;;;;;;;;;20.60;93.00;;;;;;5076351;28;19908;-88
2021/08/01 13:12:12;;;;;;;;;;;20.60;92.90;;;;;;5076833;28;19987;-89
2021/08/01 13:14:38;;;;;;;;;;;20.70;93.10;;;;;;5076609;28;20418;-89
2021/08/01 13:17:04;;;;;;;;;;;20.70;93.10;;;;;;5094805;28;19916;-89
2021/08/01 13:19:37;;;;;;;;;;;20.70;92.90;;;;;;5094277;28;19954;-89
2021/08/01 13:22:08;;;;;;;;;;;20.60;92.90;;;;;;5094658;28;20395;-89
2021/08/01 13:24:36;;;;;;;;;;;20.50;93.00;;;;;;5076481;28;19908;-88
2021/08/01 13:27:04;;;;;;;;;;;20.40;93.30;;;;;;5076477;28;19908;-88
2021/08/01 13:29:29;;;;;;;;;;;20.30;93.20;;;;;;5076066;28;20011;-89
2021/08/01 13:31:55;;;;;;;;;;;20.30;93.40;;;;;;5076263;28;20403;-89
2021/08/01 13:40:37;;;;;;;;;;;20.30;93.60;;;;;;5093855;28;19918;-89
2021/08/01 13:43:13;;;;;;;;;;;20.40;93.70;;;;;;5094506;28;19990;-90
2021/08/01 13:45:39;;;;;;;;;;;20.40;93.50;;;;;;5076310;28;19908;-89
2021/08/01 13:48:04;;;;;;;;;;;20.50;93.60;;;;;;5076116;28;19981;-88
2021/08/01 13:50:31;;;;;;;;;;;20.50;93.30;;;;;;5075552;28;19908;-88
2021/08/01 13:52:57;;;;;;;;;;;20.50;93.00;;;;;;5076373;28;20295;-88
2021/08/01 13:55:23;;;;;;;;;;;20.40;93.00;;;;;;5075975;28;20007;-88
2021/08/01 13:57:59;;;;;;;;;;;20.50;93.20;;;;;;5075772;28;19912;-89
2021/08/01 14:00:43;;;;;;;;;;;20.40;93.20;;;;;;5095453;28;20590;-88
2021/08/01 14:13:14;;;;;;;;;;;20.20;95.60;;;;;;5051382;28;19935;-89
2021/08/01 14:19:31;;;;;;;;;;;19.70;99.90;;;;;;4972152;28;19921;-89
2021/08/01 14:34:54;;;;;;;;;;;18.60;99.90;;;;;;4929213;29;19998;-89
2021/08/01 14:38:14;;;;;;;;;;;18.60;99.90;;;;;;4895755;29;19915;-90
2021/08/01 14:41:21;;;;;;;;;;;18.60;99.90;;;;;;4906910;29;19911;-89
2021/08/01 14:43:47;;;;;;;;;;;18.70;99.90;;;;;;4931612;29;20372;-90
2021/08/01 14:46:15;;;;;;;;;;;18.90;99.90;;;;;;4951961;28;19918;-89
2021/08/01 14:48:45;;;;;;;;;;;19.00;99.90;;;;;;5052167;28;20003;-88
2021/08/01 14:53:55;;;;;;;;;;;19.10;99.90;;;;;;5093460;28;19914;-90
2021/08/01 14:56:22;;;;;;;;;;;19.10;99.90;;;;;;5074620;28;20010;-90
2021/08/01 14:58:51;;;;;;;;;;;19.20;99.90;;;;;;5074471;28;19915;-90
2021/08/01 15:01:53;;;;;;;;;;;19.20;99.90;;;;;;5093408;28;19914;-89
2021/08/01 15:04:28;;;;;;;;;;;19.20;99.90;;;;;;5009161;28;19917;-90
2021/08/01 15:06:56;;;;;;;;;;;19.40;99.90;;;;;;5066212;28;19915;-90
2021/08/01 15:09:41;;;;;;;;;;;19.50;99.90;;;;;;5074151;28;19912;-90
2021/08/01 15:12:11;;;;;;;;;;;19.60;99.90;;;;;;5092697;28;20316;-90
2021/08/01 15:14:36;;;;;;;;;;;19.90;99.90;;;;;;5092772;28;19917;-91
2021/08/01 15:17:09;;;;;;;;;;;19.90;99.90;;;;;;5074487;28;19912;-89
2021/08/01 15:19:38;;;;;;;;;;;19.90;99.90;;;;;;5073817;28;20391;-90
2021/08/01 15:22:11;;;;;;;;;;;19.90;99.90;;;;;;5074785;28;20392;-91
2021/08/01 15:24:40;;;;;;;;;;;19.80;99.90;;;;;;5092568;28;20006;-90
2021/08/01 15:27:06;;;;;;;;;;;19.70;99.90;;;;;;5092659;28;19908;-89
2021/08/01 15:29:32;;;;;;;;;;;19.70;99.90;;;;;;5073396;28;20292;-90
2021/08/01 15:31:59;;;;;;;;;;;19.50;99.50;;;;;;5074350;28;20404;-90
2021/08/01 15:34:24;;;;;;;;;;;19.50;98.20;;;;;;5074457;28;19909;-89
2021/08/01 15:36:50;;;;;;;;;;;19.40;98.00;;;;;;5074864;28;20389;-90
2021/08/01 15:39:16;;;;;;;;;;;19.30;97.70;;;;;;5075534;28;19908;-90